createdAt,value
2022-11-25T00:02:33.759Z,74.50
2022-11-25T00:05:16.912Z,75.30
2022-11-25T00:07:59.761Z,78.30
2022-11-25T00:10:42.571Z,72.70
2022-11-25T00:16:22.584Z,74.40
2022-11-25T00:19:05.537Z,71.90
2022-11-25T00:21:48.525Z,72.50
2022-11-25T00:24:32.567Z,69.50
2022-11-25T00:27:15.614Z,70.70
2022-11-25T00:29:58.303Z,68.40
2022-11-25T00:32:41.338Z,70.40
2022-11-25T00:35:24.150Z,68.80
2022-11-25T00:44:14.034Z,64.30
2022-11-25T00:46:57.433Z,62.70
2022-11-25T00:49:46.514Z,64.50
2022-11-25T00:52:29.246Z,67.00
2022-11-25T00:57:54.788Z,64.90
2022-11-25T01:03:20.371Z,65.10
2022-11-25T01:08:46.747Z,63.40
2022-11-25T01:11:30.037Z,65.00
2022-11-25T01:14:12.951Z,65.50
2022-11-25T01:16:55.732Z,65.60
2022-11-25T01:19:40.541Z,69.80
2022-11-25T01:22:23.555Z,67.00
2022-11-25T01:27:50.342Z,63.50
2022-11-25T01:33:21.030Z,66.40
2022-11-25T01:36:24.616Z,64.50
2022-11-25T01:39:08.952Z,68.10
2022-11-25T01:41:52.131Z,68.10
2022-11-25T01:47:23.568Z,65.60
2022-11-25T01:50:11.062Z,67.90
2022-11-25T01:52:56.781Z,62.50
2022-11-25T01:55:49.066Z,63.20
2022-11-25T01:58:35.539Z,63.20
2022-11-25T02:01:18.836Z,61.80
2022-11-25T02:04:02.617Z,58.30
2022-11-25T02:06:52.782Z,63.50
2022-11-25T02:09:43.779Z,59.30
2022-11-25T02:12:28.305Z,61.60
2022-11-25T02:15:15.588Z,62.30
2022-11-25T02:17:58.420Z,58.30
2022-11-25T02:26:26.502Z,55.70
2022-11-25T02:29:09.991Z,58.80
2022-11-25T02:31:53.660Z,57.60
2022-11-25T02:34:46.025Z,58.20
2022-11-25T02:37:29.365Z,57.10
2022-11-25T02:40:14.563Z,55.70
2022-11-25T02:43:00.333Z,59.00
2022-11-25T02:45:57.734Z,56.50
2022-11-25T02:51:46.023Z,53.20
2022-11-25T02:54:28.826Z,57.80
2022-11-25T02:59:54.390Z,53.90
2022-11-25T03:05:21.496Z,56.10
2022-11-25T03:08:05.311Z,55.20
2022-11-25T03:10:52.559Z,52.80
2022-11-25T03:13:35.484Z,53.50
2022-11-25T03:16:19.511Z,57.50
2022-11-25T03:19:02.936Z,52.60
2022-11-25T03:21:45.692Z,52.50
2022-11-25T03:27:11.380Z,50.70
2022-11-25T03:29:54.573Z,50.60
2022-11-25T03:32:38.840Z,53.30
2022-11-25T03:35:23.499Z,50.60
2022-11-25T03:38:06.361Z,51.00
2022-11-25T03:40:51.752Z,50.50
2022-11-25T03:43:35.821Z,53.90
2022-11-25T03:46:19.467Z,52.80
2022-11-25T03:49:02.864Z,50.20
2022-11-25T03:51:45.607Z,51.40
2022-11-25T03:54:29.373Z,49.50
2022-11-25T03:57:31.231Z,51.50
2022-11-25T04:00:14.707Z,49.00
2022-11-25T04:03:09.493Z,51.80
2022-11-25T04:05:52.311Z,49.20
2022-11-25T04:08:35.431Z,46.70
2022-11-25T04:11:18.665Z,50.70
2022-11-25T04:14:03.449Z,50.70
2022-11-25T04:16:46.903Z,48.60
2022-11-25T04:19:29.854Z,49.80
2022-11-25T04:22:12.669Z,49.70
2022-11-25T04:24:58.515Z,54.00
2022-11-25T04:27:41.975Z,49.20
2022-11-25T04:30:25.749Z,49.20
2022-11-25T04:33:10.000Z,49.10
2022-11-25T04:35:53.737Z,49.40
2022-11-25T04:38:37.060Z,47.10
2022-11-25T04:41:20.168Z,50.50
2022-11-25T04:44:04.271Z,50.00
2022-11-25T04:46:48.250Z,48.40
2022-11-25T04:49:31.343Z,48.70
2022-11-25T04:52:14.221Z,49.80
2022-11-25T04:54:57.451Z,50.20
2022-11-25T04:57:40.721Z,49.50
2022-11-25T05:00:24.436Z,54.10
2022-11-25T05:03:09.663Z,50.40
2022-11-25T05:05:52.802Z,50.30
2022-11-25T05:11:18.675Z,49.90
2022-11-25T05:14:02.010Z,47.00
2022-11-25T05:16:45.016Z,50.60
2022-11-25T05:19:28.651Z,48.70
2022-11-25T05:22:13.948Z,45.70
2022-11-25T05:24:57.617Z,45.60
2022-11-25T05:27:40.552Z,44.60
2022-11-25T05:30:25.011Z,45.00
2022-11-25T05:33:08.160Z,45.10
2022-11-25T05:35:58.573Z,45.10
2022-11-25T05:38:45.144Z,45.60
2022-11-25T05:41:30.551Z,44.20
2022-11-25T05:44:18.398Z,45.30
2022-11-25T05:47:04.847Z,46.50
2022-11-25T05:49:48.550Z,47.10
2022-11-25T05:52:32.219Z,44.10
2022-11-25T05:55:16.381Z,48.30
2022-11-25T05:58:03.292Z,44.80
2022-11-25T06:00:46.202Z,45.60
2022-11-25T06:03:30.082Z,46.90
2022-11-25T06:06:13.772Z,45.40
2022-11-25T06:08:57.301Z,46.80
2022-11-25T06:11:40.924Z,44.60
2022-11-25T06:14:24.060Z,43.70
2022-11-25T06:17:07.374Z,45.50
2022-11-25T06:19:54.823Z,44.80
2022-11-25T06:25:20.625Z,44.50
2022-11-25T06:28:12.692Z,44.20
2022-11-25T06:31:04.904Z,45.60
2022-11-25T06:33:54.591Z,46.40
2022-11-25T06:36:37.492Z,45.40
2022-11-25T06:42:03.249Z,48.10
2022-11-25T06:47:29.367Z,44.50
2022-11-25T06:50:12.380Z,44.50
2022-11-25T06:52:55.379Z,43.70
2022-11-25T06:58:35.532Z,43.50
2022-11-25T07:01:22.194Z,50.00
2022-11-25T07:04:05.947Z,44.40
2022-11-25T07:06:50.104Z,44.60
2022-11-25T07:09:33.409Z,45.20
2022-11-25T07:12:16.222Z,44.50
2022-11-25T07:14:59.085Z,44.60
2022-11-25T07:23:10.776Z,45.20
2022-11-25T07:28:37.211Z,45.30
2022-11-25T07:31:36.097Z,47.00
2022-11-25T07:34:21.370Z,49.40
2022-11-25T07:37:04.296Z,47.80
2022-11-25T07:39:47.064Z,50.40
2022-11-25T07:45:12.564Z,44.20
2022-11-25T07:48:02.952Z,48.30
2022-11-25T07:50:47.440Z,46.20
2022-11-25T07:53:30.464Z,43.60
2022-11-25T07:56:14.686Z,47.20
2022-11-25T07:58:58.213Z,48.20
2022-11-25T08:01:45.449Z,45.50
2022-11-25T08:04:28.546Z,45.50
2022-11-25T08:07:11.913Z,48.80
2022-11-25T08:09:54.836Z,44.20
2022-11-25T08:12:37.681Z,49.80
2022-11-25T08:18:03.323Z,46.60
2022-11-25T08:20:47.773Z,47.40
2022-11-25T08:23:32.203Z,47.30
2022-11-25T08:26:21.802Z,47.70
2022-11-25T08:29:07.063Z,49.40
2022-11-25T08:31:49.899Z,48.20
2022-11-25T08:39:59.237Z,46.10
2022-11-25T08:42:42.259Z,46.60
2022-11-25T08:48:07.888Z,47.40
2022-11-25T08:50:54.963Z,48.30
2022-11-25T08:53:38.416Z,48.40
2022-11-25T08:56:26.253Z,47.50
2022-11-25T08:59:09.455Z,50.00
2022-11-25T09:04:35.763Z,45.70
2022-11-25T09:07:18.878Z,48.40
2022-11-25T09:10:01.768Z,49.60
2022-11-25T09:12:44.567Z,50.10
2022-11-25T09:15:27.777Z,50.50
2022-11-25T09:18:11.809Z,51.30
2022-11-25T09:20:55.844Z,48.20
2022-11-25T09:23:39.905Z,49.20
2022-11-25T09:26:28.397Z,48.60
2022-11-25T09:29:13.568Z,47.60
2022-11-25T09:31:57.165Z,48.20
2022-11-25T09:34:40.093Z,52.20
2022-11-25T09:37:23.001Z,50.80
2022-11-25T09:43:24.752Z,49.80
2022-11-25T09:46:41.987Z,53.00
2022-11-25T09:49:34.063Z,49.20
2022-11-25T09:52:30.135Z,52.60
2022-11-25T09:55:17.908Z,51.90
2022-11-25T09:58:25.951Z,50.20
2022-11-25T10:01:17.266Z,52.70
2022-11-25T10:04:24.774Z,50.70
2022-11-25T10:07:38.076Z,52.80
2022-11-25T10:10:53.556Z,52.50
2022-11-25T10:14:02.298Z,52.80
2022-11-25T10:16:55.473Z,50.60
2022-11-25T10:20:12.548Z,55.00
2022-11-25T10:23:02.525Z,53.90
2022-11-25T10:25:48.438Z,53.90
2022-11-25T10:28:33.600Z,50.30
